• Join FlightAware (Why Join?)
  • Login
  • US Flag 
02:02PM EDT


 

Airport Tracker/Info


-or-


 

Live Flight TrackerFlight Track Log ✈ N143DE ✈ 07-May-2013 ✈ KRYY - KTRI

Flight Track Log - Related Links

Times and Time Zones

All times are in EDT time to prevent confusion due to time zone crossing. See the N143DE flight status page for this flight to view local times or setup timezone preferences in your user account.

Time Position Orientation Groundspeed Altitude Reporting Facility
EDT Latitude Longitude Course Direction KTS MPH feet Rate Location/Type
10:47PM 34.6394 -84.1525 35° Northeast 187 215 17,500  Level Atlanta Center
10:48PM 34.6792 -84.1144 38° Northeast 187 215 18,100 720 Climbing Atlanta Center
10:49PM 34.7231 -84.0742 37° Northeast 187 215 19,000 420 Climbing Atlanta Center
10:50PM 34.7711 -84.0286 38° Northeast 195 224 19,000  Level Atlanta Center
10:51PM 34.8253 -83.9831 35° Northeast 216 249 19,000  Level Atlanta Center
10:52PM 34.9374 -83.7946 35° Northeast  Level Estimated
10:52PM 34.8731 -83.9325 41° Northeast 237 273 19,000  Level Atlanta Center
10:53PM 34.9317 -83.8817 35° Northeast 237 273 19,000  Level Atlanta Center
10:54PM 34.9817 -83.8333 38° Northeast 243 280 19,000  Level Atlanta Center
10:55PM 35.0358 -83.7825 38° Northeast 243 280 19,000  Level Atlanta Center
10:56PM 35.0900 -83.7342 36° Northeast 243 280 19,000  Level Atlanta Center
10:57PM 35.1439 -83.6831 38° Northeast 243 280 19,000  Level Atlanta Center
10:58PM 35.2003 -83.6319 37° Northeast 243 280 19,000  Level Atlanta Center
10:59PM 35.2542 -83.5811 38° Northeast 243 280 19,000 -120 Level Atlanta Center
11:00PM 35.3103 -83.5297 37° Northeast 243 280 18,800 -360 Descending Atlanta Center
11:01PM 35.3686 -83.4758 37° Northeast 243 280 18,300 -540 Descending Atlanta Center
11:02PM 35.4247 -83.4194 39° Northeast 248 285 17,800 -660 Descending Atlanta Center
11:03PM 35.4828 -83.3653 37° Northeast 254 292 17,000 -480 Descending Atlanta Center
11:04PM 35.5367 -83.3192 35° Northeast 248 285 16,900 -60 Descending Atlanta Center
11:05PM 35.5864 -83.2675 40° Northeast 237 273 16,900 60 Level Atlanta Center
11:06PM 35.6342 -83.2186 40° Northeast 225 259 17,100 60 Climbing Atlanta Center
11:07PM 35.6839 -83.1694 39° Northeast 225 259 17,100 -180 Level Atlanta Center
11:08PM 35.7358 -83.1228 36° Northeast 225 259 16,800 -720 Descending Atlanta Center
11:09PM 35.7894 -83.0736 37° Northeast 237 273 15,700 -1,200 Descending Atlanta Center
11:10PM 35.8475 -83.0167 38° Northeast 242 278 14,400 -1,260 Descending Atlanta Center
11:11PM 35.9014 -82.9619 39° Northeast 242 278 13,200 -1,200 Descending Atlanta Center
11:12PM 35.9531 -82.9128 38° Northeast 247 284 12,000 -1,200 Descending Atlanta Center
11:13PM 36.0067 -82.8656 35° Northeast 241 277 10,900 -720 Descending Atlanta Center
11:14PM 36.0544 -82.8214 37° Northeast 228 262 10,600 -540 Descending Atlanta Center
11:15PM 36.1017 -82.7717 40° Northeast 223 257 9,900 -420 Descending Atlanta Center
11:16PM 36.1386 -82.7147 51° Northeast 210 242 9,800 -600 Descending Atlanta Center
11:17PM 36.1756 -82.6575 51° Northeast 202 232 8,700 -1,140 Descending Atlanta Center
11:18PM 36.2186 -82.5950 49° Northeast 218 251 7,600 -1,140 Descending Atlanta Center
11:19PM 36.2597 -82.5325 51° Northeast 223 257 6,500 -960 Descending Atlanta Center
11:20PM 36.3028 -82.4775 46° Northeast 223 257 5,700 -840 Descending Atlanta Center
11:22PM 36.3898 -82.4422 31° Northeast  Level Estimated
11:29PM 36.4667 -82.4000 39° Northeast  Level FlightAware Approximate
11:30PM 36.4752 -82.4074 39° Northeast  Level Estimated
11:31PM 36.4752 -82.4074 39° Northeast  Level Estimated
11:32PM 36.4752 -82.4074 39° Northeast  Level Estimated
11:33PM 36.4752 -82.4074 39° Northeast  Level Estimated
11:34PM 36.4752 -82.4074 39° Northeast  Level Estimated
11:35PM 36.4752 -82.4074 39° Northeast  Level Estimated